Time;durP1;ratioP1;P1;durP2;ratioP2;P2;SDS_P1;SDS_P2;PMS_P1;PMS_P2;Temp;Humidity;BMP_temperature;BMP_pressure;BME280_temperature;BME280_humidity;BME280_pressure;Samples;Min_cycle;Max_cycle;Signal;HPM_P1;HPM_P2
2022/12/03 00:00:49;;;;;;;24.10;15.43;;;;;;;1.38;65.97;100340.50;10429657;28;20060;-68
2022/12/03 00:05:51;;;;;;;25.17;14.98;;;;;;;1.47;65.90;100339.50;10436433;28;20296;-68
2022/12/03 00:10:53;;;;;;;24.92;15.50;;;;;;;1.51;65.67;100341.16;10432612;28;20049;-68
2022/12/03 00:15:54;;;;;;;27.00;17.30;;;;;;;1.44;65.47;100333.56;10455192;28;20053;-68
2022/12/03 00:20:56;;;;;;;28.42;16.67;;;;;;;1.62;65.46;100330.66;10434681;28;20057;-68
2022/12/03 00:25:58;;;;;;;28.52;17.17;;;;;;;1.42;65.77;100332.72;10435926;28;20441;-68
2022/12/03 00:30:59;;;;;;;31.20;17.95;;;;;;;1.45;65.52;100330.09;10441696;28;20053;-68
2022/12/03 00:36:01;;;;;;;29.58;18.27;;;;;;;1.66;65.52;100332.31;10434537;28;20499;-67
2022/12/03 00:41:03;;;;;;;33.05;19.08;;;;;;;1.61;65.34;100329.81;10433241;28;20048;-68
2022/12/03 00:46:05;;;;;;;34.53;19.75;;;;;;;1.65;65.13;100326.31;10435026;28;20044;-68
2022/12/03 00:51:06;;;;;;;33.28;17.92;;;;;;;1.44;65.08;100324.09;10431324;28;20056;-68
2022/12/03 00:56:08;;;;;;;34.42;19.98;;;;;;;1.68;65.17;100323.69;10429345;28;20055;-68
2022/12/03 01:01:09;;;;;;;35.38;20.77;;;;;;;1.76;64.53;100321.81;10431090;28;20386;-69
2022/12/03 01:06:11;;;;;;;33.95;19.42;;;;;;;1.71;64.57;100331.34;10430138;28;20385;-68
2022/12/03 01:16:34;;;;;;;31.83;19.25;;;;;;;1.50;64.68;100325.72;10438537;28;20049;-69
2022/12/03 01:21:36;;;;;;;34.92;20.67;;;;;;;1.65;64.46;100331.47;10430800;28;20045;-68
2022/12/03 01:26:38;;;;;;;31.42;18.92;;;;;;;1.66;64.27;100334.91;10442302;28;20048;-68
2022/12/03 01:37:00;;;;;;;29.88;17.75;;;;;;;1.28;64.53;100327.78;10433628;28;20048;-68
2022/12/03 01:42:02;;;;;;;30.13;17.65;;;;;;;1.22;64.39;100321.00;10439569;28;20045;-68
2022/12/03 01:47:06;;;;;;;31.20;18.25;;;;;;;1.47;64.82;100330.91;10430521;28;20044;-68
2022/12/03 01:52:13;;;;;;;30.52;17.98;;;;;;;1.74;63.96;100336.47;10432758;28;20501;-69
2022/12/03 01:57:34;;;;;;;29.88;18.35;;;;;;;1.73;63.92;100344.22;10429938;28;20049;-68
2022/12/03 02:02:36;;;;;;;32.45;18.40;;;;;;;1.61;64.28;100342.69;10428626;28;20057;-68
2022/12/03 02:07:37;;;;;;;26.77;16.73;;;;;;;1.45;64.54;100337.81;10443070;28;20796;-65
2022/12/03 02:12:46;;;;;;;26.90;15.20;;;;;;;1.39;64.26;100343.94;10435042;28;20053;-67
2022/12/03 02:17:49;;;;;;;27.13;16.40;;;;;;;1.38;63.99;100340.50;10426266;28;20048;-68
2022/12/03 02:23:34;;;;;;;23.23;14.20;;;;;;;1.12;63.72;100342.63;10439144;28;20504;-68
2022/12/03 02:28:37;;;;;;;22.92;14.00;;;;;;;1.25;63.95;100340.72;10416236;28;20082;-68
2022/12/03 02:33:38;;;;;;;21.88;13.73;;;;;;;1.28;64.27;100331.22;10436781;28;20055;-68
2022/12/03 02:38:42;;;;;;;20.35;13.35;;;;;;;1.49;64.01;100326.59;10438919;28;20052;-68
2022/12/03 02:43:44;;;;;;;19.98;12.52;;;;;;;1.31;63.81;100331.19;10427228;28;20041;-65
2022/12/03 02:48:45;;;;;;;21.08;13.57;;;;;;;1.16;63.77;100333.97;10427912;28;20060;-69
2022/12/03 02:53:49;;;;;;;19.70;12.20;;;;;;;1.33;63.65;100339.75;10432612;28;20044;-68
2022/12/03 02:58:53;;;;;;;21.40;13.25;;;;;;;1.62;63.62;100331.53;10426615;28;20421;-68
2022/12/03 03:03:56;;;;;;;18.30;11.52;;;;;;;1.45;63.15;100330.94;10447676;28;20425;-68
2022/12/03 03:08:58;;;;;;;21.30;13.13;;;;;;;1.36;63.44;100323.34;10433127;28;20041;-68
2022/12/03 03:14:01;;;;;;;15.57;10.52;;;;;;;1.29;63.01;100330.34;10433641;28;20300;-69
2022/12/03 03:19:03;;;;;;;20.25;11.20;;;;;;;1.22;63.17;100320.16;10441699;28;20203;-68
2022/12/03 03:24:05;;;;;;;18.33;11.98;;;;;;;1.14;63.55;100328.00;10433173;28;20053;-68
2022/12/03 03:29:07;;;;;;;18.83;12.32;;;;;;;1.23;63.43;100319.28;10432484;28;20057;-67
2022/12/03 03:34:09;;;;;;;19.10;12.00;;;;;;;1.48;63.05;100312.88;10456868;28;20049;-67
2022/12/03 03:39:11;;;;;;;18.63;11.32;;;;;;;1.47;63.11;100316.31;10439993;28;20044;-68
2022/12/03 03:44:13;;;;;;;17.70;11.70;;;;;;;1.43;62.63;100319.81;10453991;28;20044;-69
2022/12/03 03:49:15;;;;;;;18.70;12.00;;;;;;;1.46;63.25;100308.63;10439580;28;20048;-67
2022/12/03 03:54:17;;;;;;;19.52;11.93;;;;;;;1.64;62.74;100297.97;10438902;28;20059;-69
2022/12/03 03:59:18;;;;;;;18.30;11.70;;;;;;;1.57;62.84;100297.22;10441028;28;20358;-68
2022/12/03 04:04:22;;;;;;;16.17;10.60;;;;;;;1.59;62.95;100290.31;10446737;28;20045;-69
2022/12/03 04:09:24;;;;;;;17.88;11.55;;;;;;;1.15;63.18;100296.25;10434915;28;20052;-68
2022/12/03 04:14:25;;;;;;;17.08;10.75;;;;;;;1.00;63.19;100306.75;10447010;28;20052;-68
2022/12/03 04:19:27;;;;;;;17.75;11.30;;;;;;;0.88;63.56;100294.06;10433299;28;20045;-68
2022/12/03 04:24:29;;;;;;;16.55;11.23;;;;;;;0.86;63.91;100290.66;10435427;28;20116;-68
2022/12/03 04:29:30;;;;;;;17.42;11.60;;;;;;;0.90;63.52;100300.06;10447430;28;20496;-68
2022/12/03 04:39:53;;;;;;;15.50;10.75;;;;;;;0.81;63.84;100284.72;10432373;28;20118;-67
2022/12/03 04:44:57;;;;;;;18.85;11.88;;;;;;;0.90;63.98;100287.19;10450468;28;20060;-68
2022/12/03 04:49:58;;;;;;;17.48;11.27;;;;;;;0.86;63.80;100284.66;10436209;28;20053;-67
2022/12/03 04:55:00;;;;;;;17.90;12.05;;;;;;;1.08;63.86;100284.31;10432312;28;20049;-68
2022/12/03 05:00:03;;;;;;;15.80;10.82;;;;;;;1.33;63.27;100284.78;10443378;28;20140;-67
2022/12/03 05:05:05;;;;;;;17.20;11.35;;;;;;;1.38;63.21;100286.38;10464287;28;20053;-67
2022/12/03 05:10:09;;;;;;;17.05;11.60;;;;;;;1.05;63.47;100284.38;10430884;28;20064;-67
2022/12/03 05:15:10;;;;;;;16.42;11.70;;;;;;;1.10;63.76;100290.28;10442302;28;20056;-67
2022/12/03 05:25:33;;;;;;;17.30;11.70;;;;;;;1.00;63.93;100298.19;10430571;28;20052;-68
2022/12/03 05:30:35;;;;;;;16.67;11.60;;;;;;;1.04;63.95;100285.25;10461953;28;20049;-68
2022/12/03 05:35:36;;;;;;;17.50;11.90;;;;;;;0.96;64.29;100281.94;10430392;28;20049;-69
2022/12/03 05:40:39;;;;;;;18.52;12.85;;;;;;;1.11;64.19;100281.72;10428267;28;20064;-68
2022/12/03 05:45:43;;;;;;;20.35;13.13;;;;;;;1.12;64.20;100270.50;10438089;28;20497;-68
2022/12/03 05:50:45;;;;;;;19.33;13.15;;;;;;;1.27;64.25;100275.44;10431935;28;20559;-66
2022/12/03 05:55:47;;;;;;;18.45;12.60;;;;;;;1.38;64.03;100271.81;10428576;28;20052;-69
2022/12/03 06:00:48;;;;;;;19.60;12.00;;;;;;;0.97;64.22;100268.16;10436295;28;20076;-68
2022/12/03 06:05:50;;;;;;;17.70;12.38;;;;;;;0.96;65.01;100251.03;10427589;28;20696;-68
2022/12/03 06:10:52;;;;;;;16.83;11.48;;;;;;;1.03;64.47;100269.81;10425754;28;20057;-68
2022/12/03 06:15:53;;;;;;;17.70;11.73;;;;;;;1.06;64.63;100273.19;10428405;28;20309;-68
2022/12/03 06:20:55;;;;;;;18.00;11.65;;;;;;;1.11;64.62;100267.97;10430371;28;21214;-67
2022/12/03 06:25:57;;;;;;;18.15;11.43;;;;;;;1.00;64.37;100277.56;10430779;28;20071;-68
2022/12/03 06:30:58;;;;;;;18.77;12.02;;;;;;;1.04;64.61;100279.22;10434592;28;20413;-67
2022/12/03 06:36:00;;;;;;;19.63;12.40;;;;;;;1.09;64.40;100277.44;10423933;28;20049;-68
2022/12/03 06:41:02;;;;;;;18.67;12.15;;;;;;;1.06;64.26;100274.91;10436975;28;20055;-68
2022/12/03 06:46:04;;;;;;;17.05;11.45;;;;;;;1.11;64.05;100283.44;10439868;28;20081;-68
2022/12/03 06:51:06;;;;;;;18.85;12.50;;;;;;;0.98;64.21;100267.31;10426015;28;20509;-68
2022/12/03 06:56:07;;;;;;;17.90;11.57;;;;;;;0.87;64.33;100269.19;10431459;28;20055;-68
2022/12/03 07:01:09;;;;;;;18.27;12.68;;;;;;;0.95;64.22;100282.78;10440298;28;20779;-67
2022/12/03 07:06:11;;;;;;;19.65;12.15;;;;;;;0.81;64.25;100278.75;10431906;28;20140;-67
2022/12/03 07:11:31;;;;;;;18.13;11.82;;;;;;;0.98;63.84;100277.59;10428463;28;20057;-68
2022/12/03 07:16:34;;;;;;;19.58;12.48;;;;;;;1.07;63.96;100276.63;10436026;28;20055;-68
2022/12/03 07:21:36;;;;;;;18.50;12.80;;;;;;;1.03;64.20;100272.41;10435162;28;20152;-67
2022/12/03 07:26:38;;;;;;;17.38;11.55;;;;;;;1.11;63.63;100268.81;10444687;28;20067;-67
2022/12/03 07:31:41;;;;;;;19.77;12.77;;;;;;;0.93;63.81;100271.66;10436268;28;20067;-67
2022/12/03 07:36:43;;;;;;;17.77;12.52;;;;;;;0.94;63.91;100269.94;10441804;28;20045;-68
2022/12/03 07:41:44;;;;;;;18.27;12.45;;;;;;;1.11;63.70;100265.41;10433699;28;20052;-66
2022/12/03 07:46:46;;;;;;;19.52;12.73;;;;;;;0.83;63.69;100277.00;10433358;28;20131;-68
2022/12/03 07:51:53;;;;;;;21.55;14.13;;;;;;;0.77;64.19;100270.19;10432086;28;20419;-68
2022/12/03 07:56:54;;;;;;;20.20;13.60;;;;;;;0.91;64.16;100265.69;10441738;28;20139;-67
2022/12/03 08:02:02;;;;;;;20.38;12.88;;;;;;;0.95;63.79;100267.34;10432544;28;20048;-66
2022/12/03 08:07:04;;;;;;;20.55;13.52;;;;;;;0.93;63.89;100269.09;10445293;28;20460;-67
2022/12/03 08:12:16;;;;;;;21.17;14.02;;;;;;;0.89;63.74;100275.16;10432390;28;20049;-67
2022/12/03 08:17:18;;;;;;;21.38;14.52;;;;;;;0.93;64.11;100261.38;10443167;28;20044;-66
2022/12/03 08:22:21;;;;;;;22.05;14.68;;;;;;;0.82;63.96;100272.72;10432405;28;20077;-68
2022/12/03 08:27:22;;;;;;;23.23;14.63;;;;;;;0.80;64.36;100274.47;10437619;28;20045;-68
2022/12/03 08:32:24;;;;;;;25.27;15.07;;;;;;;0.78;63.95;100269.34;10432537;28;20139;-67
2022/12/03 08:37:26;;;;;;;25.42;15.30;;;;;;;0.78;64.11;100271.91;10432934;28;20509;-67
2022/12/03 08:42:40;;;;;;;25.38;15.73;;;;;;;0.92;63.89;100269.13;10431545;28;20051;-67
2022/12/03 08:47:42;;;;;;;23.73;15.48;;;;;;;1.03;63.46;100270.69;10432447;28;20052;-67
2022/12/03 08:52:43;;;;;;;24.42;15.65;;;;;;;1.04;63.82;100269.78;10431507;28;20235;-66
2022/12/03 08:57:45;;;;;;;26.40;16.08;;;;;;;1.26;63.47;100268.56;10425685;28;20049;-67
2022/12/03 09:02:51;;;;;;;24.88;16.02;;;;;;;1.18;63.24;100278.13;10425889;28;20045;-67
2022/12/03 09:07:52;;;;;;;24.98;16.10;;;;;;;1.28;63.66;100274.53;10427240;28;20045;-68
2022/12/03 09:12:54;;;;;;;26.35;16.92;;;;;;;1.25;63.33;100273.75;10427887;28;20056;-67
2022/12/03 09:17:56;;;;;;;28.63;17.80;;;;;;;1.29;63.12;100275.41;10434432;28;20053;-67
2022/12/03 09:22:57;;;;;;;27.02;17.58;;;;;;;1.08;63.40;100268.88;10428817;28;20041;-68
2022/12/03 09:27:59;;;;;;;28.80;17.27;;;;;;;1.27;63.38;100270.28;10429883;28;20049;-68
2022/12/03 09:33:01;;;;;;;34.83;20.25;;;;;;;1.34;63.09;100278.72;10441780;28;20497;-68
2022/12/03 09:38:02;;;;;;;30.17;18.33;;;;;;;1.51;63.03;100265.56;10427312;28;20052;-67
2022/12/03 09:43:05;;;;;;;28.67;17.52;;;;;;;1.73;62.99;100262.56;10428783;28;20056;-67
2022/12/03 09:48:07;;;;;;;28.13;17.90;;;;;;;1.70;62.50;100260.06;10429244;28;20088;-67
2022/12/03 09:53:15;;;;;;;29.73;18.42;;;;;;;1.60;62.52;100260.25;10436429;28;20098;-67
2022/12/03 09:58:19;;;;;;;30.83;18.88;;;;;;;1.75;62.56;100254.78;10428342;28;20045;-68
2022/12/03 10:03:25;;;;;;;31.83;19.15;;;;;;;1.38;63.16;100249.44;10428818;28;20559;-67
2022/12/03 10:08:31;;;;;;;33.85;20.23;;;;;;;1.69;62.85;100240.28;10430197;28;20185;-67
2022/12/03 10:13:36;;;;;;;36.72;19.27;;;;;;;1.92;63.05;100239.84;10442474;28;20056;-71
2022/12/03 10:18:41;;;;;;;32.65;19.45;;;;;;;1.64;62.77;100234.41;10428669;28;20061;-71
2022/12/03 10:23:45;;;;;;;35.83;20.90;;;;;;;1.44;62.74;100222.75;10461802;28;20048;-72
2022/12/03 10:28:55;;;;;;;32.63;20.20;;;;;;;1.59;62.95;100223.31;10438515;28;20060;-72
2022/12/03 10:33:57;;;;;;;38.30;21.45;;;;;;;1.68;62.81;100217.97;10426684;28;20052;-72
2022/12/03 10:39:13;;;;;;;36.67;21.45;;;;;;;1.85;62.46;100215.91;10426586;28;20056;-71
2022/12/03 10:44:20;;;;;;;36.47;21.85;;;;;;;1.91;62.57;100207.22;10425671;28;20049;-72
2022/12/03 10:49:22;;;;;;;46.70;28.33;;;;;;;1.97;62.29;100204.53;10425585;28;20496;-71
2022/12/03 10:54:26;;;;;;;40.53;23.85;;;;;;;1.65;62.61;100191.41;10428809;28;20410;-70
2022/12/03 10:59:32;;;;;;;47.78;29.90;;;;;;;1.74;62.33;100191.22;10432596;28;20387;-71
2022/12/03 11:04:35;;;;;;;34.72;21.90;;;;;;;1.71;62.48;100197.28;10427452;28;20631;-71
2022/12/03 11:09:37;;;;;;;43.55;26.17;;;;;;;1.52;62.64;100185.66;10428127;28;20069;-72
2022/12/03 11:14:51;;;;;;;43.30;27.55;;;;;;;1.56;62.39;100182.13;10424898;28;20060;-72
2022/12/03 11:19:53;;;;;;;37.00;22.50;;;;;;;1.70;62.73;100177.56;10427858;28;20138;-71
2022/12/03 11:25:25;;;;;;;40.72;23.35;;;;;;;1.54;62.45;100172.72;10425453;28;20053;-70
2022/12/03 11:30:47;;;;;;;76.18;43.88;;;;;;;1.53;62.79;100171.00;10424441;28;20061;-72
2022/12/03 11:36:01;;;;;;;36.40;21.95;;;;;;;1.66;62.48;100169.91;10459721;28;20088;-72
2022/12/03 11:41:23;;;;;;;39.55;22.60;;;;;;;1.64;62.80;100166.50;10423628;28;20543;-71
2022/12/03 11:46:42;;;;;;;38.72;22.55;;;;;;;1.82;62.38;100160.97;10434446;28;20048;-70
2022/12/03 11:51:44;;;;;;;36.10;22.13;;;;;;;1.83;62.76;100160.94;10426886;28;20562;-71
2022/12/03 11:56:50;;;;;;;35.80;21.27;;;;;;;1.85;62.60;100153.16;10437148;28;20052;-71
2022/12/03 12:01:51;;;;;;;38.50;22.45;;;;;;;1.70;62.62;100140.59;10433334;28;20056;-71
2022/12/03 12:06:53;;;;;;;39.80;22.92;;;;;;;1.84;62.76;100136.88;10429646;28;20049;-71
2022/12/03 12:11:55;;;;;;;35.17;21.30;;;;;;;1.97;62.28;100132.31;10442810;28;20059;-71
2022/12/03 12:16:57;;;;;;;38.05;22.70;;;;;;;1.75;62.59;100131.03;10462344;28;20308;-71
2022/12/03 12:22:11;;;;;;;35.85;22.33;;;;;;;1.52;62.78;100128.09;10438050;28;20516;-71
2022/12/03 12:27:31;;;;;;;36.83;21.83;;;;;;;1.51;62.97;100121.22;10449690;28;20056;-72
2022/12/03 12:32:43;;;;;;;35.38;21.38;;;;;;;1.49;63.11;100118.69;10443960;28;20057;-72
2022/12/03 12:38:10;;;;;;;35.22;22.25;;;;;;;1.71;62.92;100114.78;10431002;28;20045;-71
2022/12/03 12:43:25;;;;;;;36.08;22.63;;;;;;;1.68;62.69;100109.72;10432315;28;20384;-74
2022/12/03 12:48:38;;;;;;;38.58;22.27;;;;;;;1.70;63.04;100109.66;10432748;28;20068;-73
2022/12/03 12:53:44;;;;;;;37.50;21.98;;;;;;;1.81;62.92;100110.28;10432575;28;20049;-73
2022/12/03 12:58:45;;;;;;;35.35;21.88;;;;;;;1.86;62.75;100116.19;10429323;28;20045;-73
2022/12/03 13:03:50;;;;;;;36.47;21.88;;;;;;;1.61;63.14;100115.00;10434806;28;20517;-73
2022/12/03 13:08:53;;;;;;;33.92;21.25;;;;;;;1.67;62.91;100109.72;10433785;28;20041;-73
2022/12/03 13:13:55;;;;;;;36.92;21.98;;;;;;;1.60;62.87;100109.03;10429662;28;20068;-73
2022/12/03 13:18:59;;;;;;;37.67;22.27;;;;;;;1.50;63.43;100117.81;10442603;28;20053;-73
2022/12/03 13:24:02;;;;;;;39.28;23.40;;;;;;;1.52;63.48;100107.47;10428338;28;20057;-73
2022/12/03 13:29:15;;;;;;;36.13;21.50;;;;;;;1.66;63.65;100110.63;10432919;28;20394;-72
2022/12/03 13:34:23;;;;;;;36.88;22.27;;;;;;;1.77;63.05;100095.75;10429104;28;20526;-72
2022/12/03 13:39:31;;;;;;;39.05;22.52;;;;;;;1.76;63.03;100086.34;10437275;28;20055;-71
2022/12/03 13:44:35;;;;;;;39.15;22.40;;;;;;;1.71;63.10;100086.44;10432259;28;20059;-73
2022/12/03 13:49:37;;;;;;;38.17;23.08;;;;;;;1.94;62.95;100091.09;10430144;28;20052;-73
2022/12/03 13:54:38;;;;;;;37.45;21.85;;;;;;;1.98;62.66;100077.25;10445640;28;20057;-73
2022/12/03 13:59:40;;;;;;;35.92;21.35;;;;;;;2.05;62.59;100076.22;10461196;28;20056;-73
2022/12/03 14:04:42;;;;;;;34.47;21.55;;;;;;;1.94;62.65;100085.94;10431613;28;20409;-73
2022/12/03 14:09:43;;;;;;;34.60;20.75;;;;;;;1.97;62.45;100085.88;10427372;28;20049;-73
2022/12/03 14:14:45;;;;;;;36.13;21.98;;;;;;;1.83;62.60;100085.31;10468745;28;20404;-73
2022/12/03 14:19:47;;;;;;;37.10;22.83;;;;;;;1.87;62.81;100087.78;10454264;28;20049;-73
2022/12/03 14:24:49;;;;;;;40.88;23.38;;;;;;;1.89;62.63;100077.47;10453389;28;20477;-73
2022/12/03 14:29:50;;;;;;;37.75;22.45;;;;;;;1.87;62.85;100081.81;10429011;28;20517;-74
2022/12/03 14:34:53;;;;;;;37.88;22.15;;;;;;;1.69;62.65;100074.44;10454748;28;20126;-74
2022/12/03 14:39:54;;;;;;;40.63;22.73;;;;;;;1.84;62.80;100077.56;10427359;28;20057;-74
2022/12/03 14:44:57;;;;;;;39.67;23.00;;;;;;;1.76;62.82;100076.03;10451145;28;20048;-73
2022/12/03 14:49:58;;;;;;;36.78;22.27;;;;;;;1.84;62.93;100081.84;10467898;28;20423;-73
2022/12/03 14:55:00;;;;;;;37.45;21.98;;;;;;;1.92;62.88;100074.78;10436718;28;20056;-73
2022/12/03 15:00:06;;;;;;;41.97;23.08;;;;;;;1.80;62.85;100069.91;10427415;28;20056;-74
2022/12/03 15:05:08;;;;;;;41.28;23.80;;;;;;;1.91;62.81;100070.53;10425195;28;20432;-73
2022/12/03 15:10:10;;;;;;;42.05;23.65;;;;;;;1.89;62.56;100064.56;10425663;28;20052;-74
2022/12/03 15:15:11;;;;;;;40.63;24.55;;;;;;;1.91;62.81;100063.63;10425288;28;20139;-73
2022/12/03 15:20:13;;;;;;;45.08;24.77;;;;;;;1.95;62.76;100062.69;10427365;28;20642;-73
2022/12/03 15:25:22;;;;;;;38.40;22.48;;;;;;;2.06;62.94;100065.00;10427867;28;20429;-72
2022/12/03 15:30:24;;;;;;;40.75;24.27;;;;;;;1.83;62.58;100077.56;10430624;28;20107;-73
2022/12/03 15:35:26;;;;;;;41.30;24.05;;;;;;;1.69;62.99;100079.59;10436547;28;20076;-72
2022/12/03 15:40:27;;;;;;;44.25;24.08;;;;;;;1.51;63.30;100077.41;10432917;28;20384;-73
2022/12/03 15:45:29;;;;;;;43.10;25.00;;;;;;;1.39;63.39;100083.69;10434823;28;20521;-72
2022/12/03 15:50:31;;;;;;;47.65;25.25;;;;;;;1.36;63.34;100079.44;10433920;28;20060;-72
2022/12/03 15:55:40;;;;;;;45.50;24.02;;;;;;;1.32;63.44;100080.38;10434213;28;20131;-71
2022/12/03 16:00:41;;;;;;;41.75;23.92;;;;;;;1.32;63.47;100080.38;10433278;28;20056;-72
2022/12/03 16:05:43;;;;;;;45.72;24.80;;;;;;;1.30;63.38;100089.00;10433805;28;20049;-72
2022/12/03 16:10:45;;;;;;;42.30;24.02;;;;;;;1.07;63.81;100089.47;10452285;28;20048;-73
2022/12/03 16:15:46;;;;;;;45.38;24.65;;;;;;;1.17;63.71;100085.84;10433608;28;20345;-68
2022/12/03 16:20:48;;;;;;;44.58;24.67;;;;;;;1.14;63.63;100087.59;10448453;28;20235;-67
2022/12/03 16:25:50;;;;;;;44.50;25.08;;;;;;;0.92;64.00;100089.75;10446205;28;20048;-67
2022/12/03 16:30:52;;;;;;;44.88;25.25;;;;;;;1.17;63.88;100082.41;10427211;28;20224;-69
2022/12/03 16:35:54;;;;;;;43.92;25.05;;;;;;;1.10;63.91;100076.53;10432984;28;20068;-69
2022/12/03 16:40:55;;;;;;;46.40;24.90;;;;;;;0.92;64.13;100078.59;10431428;28;20513;-68
2022/12/03 16:46:01;;;;;;;44.28;24.40;;;;;;;0.95;64.00;100074.22;10431327;28;20663;-68
2022/12/03 16:51:03;;;;;;;44.10;24.52;;;;;;;0.97;64.00;100069.88;10436084;28;20579;-68
2022/12/03 16:56:05;;;;;;;41.63;23.58;;;;;;;0.77;64.09;100068.59;10431677;28;20404;-67
2022/12/03 17:01:07;;;;;;;44.97;24.77;;;;;;;1.00;64.27;100067.28;10431950;28;20071;-67
2022/12/03 17:06:09;;;;;;;44.05;23.50;;;;;;;1.05;63.72;100069.75;10432560;28;20476;-67
2022/12/03 17:11:10;;;;;;;44.20;25.05;;;;;;;1.25;64.06;100070.22;10430197;28;20360;-68
2022/12/03 17:16:12;;;;;;;44.40;23.98;;;;;;;1.29;63.74;100069.28;10432074;28;20386;-67
2022/12/03 17:21:14;;;;;;;46.17;23.75;;;;;;;1.30;63.64;100068.38;10432168;28;20056;-69
2022/12/03 17:26:19;;;;;;;42.55;23.67;;;;;;;1.12;64.17;100061.88;10429987;28;20412;-69
2022/12/03 17:31:20;;;;;;;46.03;25.60;;;;;;;1.07;64.20;100055.13;10428664;28;20052;-69
2022/12/03 17:36:23;;;;;;;44.33;25.15;;;;;;;1.22;64.01;100047.94;10430108;28;20052;-67
2022/12/03 17:41:25;;;;;;;44.60;25.00;;;;;;;1.28;63.90;100052.13;10438903;28;20048;-69
2022/12/03 17:46:27;;;;;;;48.22;25.08;;;;;;;1.32;63.99;100049.44;10429736;28;20068;-68
2022/12/03 17:51:29;;;;;;;45.45;24.27;;;;;;;1.33;63.60;100045.16;10429379;28;20060;-67
2022/12/03 17:56:31;;;;;;;42.72;24.60;;;;;;;1.44;64.00;100043.22;10439714;28;20041;-67
2022/12/03 18:01:33;;;;;;;42.20;23.30;;;;;;;1.63;63.79;100041.06;10429912;28;20051;-69
2022/12/03 18:06:35;;;;;;;45.05;25.30;;;;;;;1.60;63.29;100034.28;10429346;28;20383;-67
2022/12/03 18:11:37;;;;;;;45.08;24.35;;;;;;;1.38;63.59;100028.72;10429605;28;20097;-65
2022/12/03 18:16:39;;;;;;;45.60;24.30;;;;;;;1.14;63.69;100030.94;10441825;28;20311;-68
2022/12/03 18:21:40;;;;;;;43.40;23.70;;;;;;;1.02;64.07;100029.47;10447144;28;20059;-69
2022/12/03 18:26:42;;;;;;;43.05;24.02;;;;;;;1.18;64.00;100033.44;10428271;28;20440;-66
2022/12/03 18:31:44;;;;;;;43.00;23.60;;;;;;;0.94;64.41;100033.06;10428356;28;20056;-68
2022/12/03 18:36:47;;;;;;;49.50;25.13;;;;;;;0.97;64.33;100026.13;10437221;28;20055;-72
2022/12/03 18:41:51;;;;;;;44.28;24.50;;;;;;;1.12;64.17;100028.41;10458495;28;20639;-72
2022/12/03 18:46:54;;;;;;;43.00;23.98;;;;;;;1.26;64.14;100023.81;10427834;28;20055;-70
2022/12/03 18:51:56;;;;;;;45.30;24.65;;;;;;;1.22;64.02;100026.47;10427991;28;20141;-72
2022/12/03 18:57:00;;;;;;;44.35;24.65;;;;;;;1.28;64.02;100026.34;10429658;28;20044;-71
2022/12/03 19:02:02;;;;;;;43.15;23.85;;;;;;;1.35;64.19;100028.78;10435004;28;20049;-71
2022/12/03 19:07:03;;;;;;;43.10;23.88;;;;;;;1.29;63.81;100021.19;10474481;28;20044;-73
2022/12/03 19:12:06;;;;;;;44.40;24.52;;;;;;;1.18;63.87;100012.81;10425789;28;20335;-71
2022/12/03 19:17:15;;;;;;;43.25;23.27;;;;;;;1.16;64.18;100012.00;10429232;28;21413;-73
2022/12/03 19:22:16;;;;;;;42.10;23.58;;;;;;;1.04;64.37;100012.25;10426851;28;20060;-70
2022/12/03 19:27:18;;;;;;;46.88;24.08;;;;;;;1.03;64.34;100012.28;10433970;28;20057;-68
2022/12/03 19:32:20;;;;;;;42.88;23.80;;;;;;;1.10;64.03;100014.72;10427483;28;20052;-70
2022/12/03 19:37:21;;;;;;;44.20;25.05;;;;;;;1.25;64.01;100016.97;10426793;28;20417;-71
2022/12/03 19:42:23;;;;;;;46.08;24.02;;;;;;;1.46;63.74;100015.69;10437873;28;20171;-69
2022/12/03 19:47:25;;;;;;;45.30;24.52;;;;;;;1.65;63.21;100018.69;10425235;28;20041;-69
2022/12/03 19:52:26;;;;;;;45.25;24.63;;;;;;;1.65;63.56;100005.78;10426950;28;20048;-69
2022/12/03 19:57:28;;;;;;;48.40;25.10;;;;;;;1.60;63.30;100010.22;10426649;28;20041;-69
2022/12/03 20:02:30;;;;;;;45.78;25.42;;;;;;;1.36;63.65;100007.28;10426839;28;20064;-68
2022/12/03 20:07:31;;;;;;;42.10;24.27;;;;;;;1.38;63.55;100002.09;10430136;28;20137;-68
2022/12/03 20:12:33;;;;;;;46.47;24.13;;;;;;;1.34;63.66;99995.31;10457844;28;20057;-69
2022/12/03 20:17:35;;;;;;;43.42;24.25;;;;;;;1.36;63.81;99993.53;10428674;28;20072;-69
2022/12/03 20:22:37;;;;;;;43.63;24.60;;;;;;;1.44;63.56;99990.81;10430163;28;20053;-69
2022/12/03 20:27:39;;;;;;;48.10;25.08;;;;;;;1.37;63.61;99992.69;10430085;28;20057;-69
2022/12/03 20:32:41;;;;;;;44.97;25.10;;;;;;;1.40;63.80;99989.19;10429401;28;20059;-69
2022/12/03 20:37:46;;;;;;;43.55;24.10;;;;;;;1.43;63.94;99987.38;10429334;28;20068;-68
2022/12/03 20:42:47;;;;;;;44.80;24.55;;;;;;;1.60;63.53;99992.19;10429627;28;20417;-69
2022/12/03 20:47:49;;;;;;;44.55;24.15;;;;;;;1.55;63.55;99988.84;10429766;28;20053;-68
2022/12/03 20:52:51;;;;;;;44.67;24.67;;;;;;;1.55;63.56;99991.41;10429955;28;20076;-68
2022/12/03 20:58:13;;;;;;;;;;;;;;;1.09;63.94;99986.41;10432091;28;20492;-69
2022/12/03 21:03:15;;;;;;;43.03;22.60;;;;;;;1.27;63.91;99992.03;10428566;28;20376;-69
2022/12/03 21:08:17;;;;;;;41.45;23.70;;;;;;;1.34;63.61;99993.59;10429231;28;20056;-69
2022/12/03 21:13:40;;;;;;;;;;;;;;;0.99;64.30;99998.59;10430072;28;20236;-69
2022/12/03 21:18:42;;;;;;;42.20;23.70;;;;;;;1.09;64.25;100004.44;10439245;28;19924;-69
2022/12/03 21:23:44;;;;;;;42.40;22.10;;;;;;;1.15;63.79;99994.88;10436165;28;20047;-69
2022/12/03 21:28:48;;;;;;;40.22;22.48;;;;;;;1.22;63.93;99986.13;10427056;28;20394;-69
2022/12/03 21:33:52;;;;;;;42.30;22.55;;;;;;;1.14;63.97;99974.28;10437182;28;20067;-69
2022/12/03 21:38:55;;;;;;;41.45;22.85;;;;;;;1.33;63.96;99983.31;10427549;28;20056;-69
2022/12/03 21:43:57;;;;;;;40.75;22.98;;;;;;;1.42;63.64;99988.25;10429913;28;20052;-68
2022/12/03 21:48:59;;;;;;;40.80;22.30;;;;;;;1.22;63.65;99974.97;10428943;28;20068;-68
2022/12/03 21:54:02;;;;;;;40.92;23.05;;;;;;;1.27;63.94;99976.59;10428977;28;20428;-68
2022/12/03 21:59:03;;;;;;;39.22;21.95;;;;;;;1.27;63.61;99971.44;10434041;28;20459;-68
2022/12/03 22:04:05;;;;;;;40.92;23.20;;;;;;;1.21;63.74;99968.13;10428324;28;20099;-68
2022/12/03 22:09:06;;;;;;;37.67;21.70;;;;;;;1.03;64.07;99968.50;10427342;28;20083;-68
2022/12/03 22:14:08;;;;;;;36.78;20.92;;;;;;;1.11;63.88;99971.78;10427909;28;20059;-69
2022/12/03 22:19:10;;;;;;;37.75;20.83;;;;;;;0.93;64.05;99962.69;10425691;28;20049;-68
2022/12/03 22:24:12;;;;;;;36.78;21.02;;;;;;;1.04;63.65;99960.75;10440075;28;20476;-68
2022/12/03 22:29:13;;;;;;;34.75;20.10;;;;;;;0.99;64.09;99962.56;10433647;28;20053;-68
2022/12/03 22:34:15;;;;;;;37.60;21.83;;;;;;;1.09;63.96;99956.38;10427502;28;20060;-68
2022/12/03 22:39:17;;;;;;;38.35;20.48;;;;;;;1.10;64.14;99952.91;10428495;28;20424;-67
2022/12/03 22:44:18;;;;;;;35.88;21.10;;;;;;;1.35;63.81;99950.63;10428405;28;20204;-68
2022/12/03 22:49:20;;;;;;;36.78;20.60;;;;;;;1.15;63.67;99951.09;10429558;28;20056;-68
2022/12/03 22:54:22;;;;;;;35.40;20.10;;;;;;;1.23;63.67;99951.75;10427212;28;20052;-68
2022/12/03 22:59:24;;;;;;;34.15;20.17;;;;;;;0.94;63.87;99961.81;10439466;28;20053;-68
2022/12/03 23:04:26;;;;;;;35.40;20.45;;;;;;;0.91;64.17;99946.41;10427568;28;20350;-69
2022/12/03 23:09:28;;;;;;;33.05;20.30;;;;;;;0.91;64.01;99950.75;10427454;28;20051;-68
2022/12/03 23:14:29;;;;;;;36.58;21.15;;;;;;;0.94;63.84;99943.78;10426482;28;20052;-69
2022/12/03 23:19:31;;;;;;;34.30;20.05;;;;;;;1.00;63.88;99928.22;10426343;28;20060;-69
2022/12/03 23:24:33;;;;;;;33.97;20.20;;;;;;;1.21;63.51;99927.78;10427360;28;20041;-68